sensor_id;sensor_type;location;lat;lon;timestamp;temperature;humidity
4052;DHT22;2040;50.924;11.604;2024-03-07T00:02:09;4.40;99.90
4052;DHT22;2040;50.924;11.604;2024-03-07T00:04:35;4.30;99.90
4052;DHT22;2040;50.924;11.604;2024-03-07T00:07:04;4.40;99.90
4052;DHT22;2040;50.924;11.604;2024-03-07T00:09:31;4.50;99.90
4052;DHT22;2040;50.924;11.604;2024-03-07T00:11:57;4.40;99.90
4052;DHT22;2040;50.924;11.604;2024-03-07T00:14:24;4.40;99.90
4052;DHT22;2040;50.924;11.604;2024-03-07T00:16:54;4.40;99.90
4052;DHT22;2040;50.924;11.604;2024-03-07T00:19:19;4.40;99.90
4052;DHT22;2040;50.924;11.604;2024-03-07T00:21:45;4.40;99.90
4052;DHT22;2040;50.924;11.604;2024-03-07T00:24:10;4.30;99.90
4052;DHT22;2040;50.924;11.604;2024-03-07T00:26:36;4.30;99.90
4052;DHT22;2040;50.924;11.604;2024-03-07T00:29:02;4.30;99.90
4052;DHT22;2040;50.924;11.604;2024-03-07T00:31:27;4.30;99.90
4052;DHT22;2040;50.924;11.604;2024-03-07T00:33:55;4.20;99.90
4052;DHT22;2040;50.924;11.604;2024-03-07T00:36:21;4.20;99.90
4052;DHT22;2040;50.924;11.604;2024-03-07T00:38:47;4.10;99.90
4052;DHT22;2040;50.924;11.604;2024-03-07T00:41:13;4.20;99.90
4052;DHT22;2040;50.924;11.604;2024-03-07T00:43:39;4.20;99.90
4052;DHT22;2040;50.924;11.604;2024-03-07T00:46:05;4.20;99.90
4052;DHT22;2040;50.924;11.604;2024-03-07T00:48:32;4.20;99.90
4052;DHT22;2040;50.924;11.604;2024-03-07T00:50:57;4.20;99.90
4052;DHT22;2040;50.924;11.604;2024-03-07T00:53:23;4.10;99.90
4052;DHT22;2040;50.924;11.604;2024-03-07T00:55:48;4.10;99.90
4052;DHT22;2040;50.924;11.604;2024-03-07T00:58:14;4.30;99.90
4052;DHT22;2040;50.924;11.604;2024-03-07T01:00:40;4.20;99.90
4052;DHT22;2040;50.924;11.604;2024-03-07T01:03:09;4.30;99.90
4052;DHT22;2040;50.924;11.604;2024-03-07T01:05:37;4.20;99.90
4052;DHT22;2040;50.924;11.604;2024-03-07T01:08:04;4.20;99.90
4052;DHT22;2040;50.924;11.604;2024-03-07T01:10:29;4.20;99.90
4052;DHT22;2040;50.924;11.604;2024-03-07T01:12:55;4.20;99.90
4052;DHT22;2040;50.924;11.604;2024-03-07T01:15:23;4.10;99.90
4052;DHT22;2040;50.924;11.604;2024-03-07T01:17:48;4.20;99.90
4052;DHT22;2040;50.924;11.604;2024-03-07T01:20:14;4.20;99.90
4052;DHT22;2040;50.924;11.604;2024-03-07T01:22:40;4.20;99.90
4052;DHT22;2040;50.924;11.604;2024-03-07T01:25:05;4.30;99.90
4052;DHT22;2040;50.924;11.604;2024-03-07T01:27:32;4.20;99.90
4052;DHT22;2040;50.924;11.604;2024-03-07T01:29:57;4.30;99.90
4052;DHT22;2040;50.924;11.604;2024-03-07T01:32:23;4.40;99.90
4052;DHT22;2040;50.924;11.604;2024-03-07T01:34:49;4.30;99.90
4052;DHT22;2040;50.924;11.604;2024-03-07T01:37:14;4.20;99.90
4052;DHT22;2040;50.924;11.604;2024-03-07T01:39:40;4.30;99.90
4052;DHT22;2040;50.924;11.604;2024-03-07T01:42:06;4.30;99.90
4052;DHT22;2040;50.924;11.604;2024-03-07T01:44:33;4.30;99.90
4052;DHT22;2040;50.924;11.604;2024-03-07T01:46:59;4.30;99.90
4052;DHT22;2040;50.924;11.604;2024-03-07T01:49:30;4.30;99.90
4052;DHT22;2040;50.924;11.604;2024-03-07T01:51:56;4.30;99.90
4052;DHT22;2040;50.924;11.604;2024-03-07T01:54:22;4.20;99.90
4052;DHT22;2040;50.924;11.604;2024-03-07T01:56:48;4.30;99.90
4052;DHT22;2040;50.924;11.604;2024-03-07T01:59:15;4.30;99.90
4052;DHT22;2040;50.924;11.604;2024-03-07T02:01:41;4.20;99.90
4052;DHT22;2040;50.924;11.604;2024-03-07T02:04:08;4.30;99.90
4052;DHT22;2040;50.924;11.604;2024-03-07T02:06:34;4.60;99.90
4052;DHT22;2040;50.924;11.604;2024-03-07T02:09:00;4.60;99.90
4052;DHT22;2040;50.924;11.604;2024-03-07T02:11:27;4.50;99.90
4052;DHT22;2040;50.924;11.604;2024-03-07T02:13:54;4.30;99.90
4052;DHT22;2040;50.924;11.604;2024-03-07T02:16:19;4.30;99.90
4052;DHT22;2040;50.924;11.604;2024-03-07T02:18:45;4.30;99.90
4052;DHT22;2040;50.924;11.604;2024-03-07T02:21:11;4.30;99.90
4052;DHT22;2040;50.924;11.604;2024-03-07T02:23:37;4.20;99.90
4052;DHT22;2040;50.924;11.604;2024-03-07T02:26:03;4.20;99.90
4052;DHT22;2040;50.924;11.604;2024-03-07T02:28:29;4.20;99.90
4052;DHT22;2040;50.924;11.604;2024-03-07T02:30:55;4.30;99.90
4052;DHT22;2040;50.924;11.604;2024-03-07T02:33:20;4.40;99.90
4052;DHT22;2040;50.924;11.604;2024-03-07T02:35:47;4.40;99.90
4052;DHT22;2040;50.924;11.604;2024-03-07T02:38:14;4.40;99.90
4052;DHT22;2040;50.924;11.604;2024-03-07T02:40:40;4.40;99.90
4052;DHT22;2040;50.924;11.604;2024-03-07T02:43:05;4.40;99.90
4052;DHT22;2040;50.924;11.604;2024-03-07T02:45:32;4.40;99.90
4052;DHT22;2040;50.924;11.604;2024-03-07T02:47:57;4.30;99.90
4052;DHT22;2040;50.924;11.604;2024-03-07T02:50:23;4.20;99.90
4052;DHT22;2040;50.924;11.604;2024-03-07T02:52:49;4.30;99.90
4052;DHT22;2040;50.924;11.604;2024-03-07T02:55:15;4.20;99.90
4052;DHT22;2040;50.924;11.604;2024-03-07T02:57:41;4.20;99.90
4052;DHT22;2040;50.924;11.604;2024-03-07T03:00:07;4.20;99.90
4052;DHT22;2040;50.924;11.604;2024-03-07T03:02:47;4.20;99.90
4052;DHT22;2040;50.924;11.604;2024-03-07T03:05:14;4.20;99.90
4052;DHT22;2040;50.924;11.604;2024-03-07T03:07:40;4.20;99.90
4052;DHT22;2040;50.924;11.604;2024-03-07T03:10:06;4.30;99.90
4052;DHT22;2040;50.924;11.604;2024-03-07T03:12:37;4.20;99.90
4052;DHT22;2040;50.924;11.604;2024-03-07T03:15:03;4.20;99.90
4052;DHT22;2040;50.924;11.604;2024-03-07T03:17:30;4.30;99.90
4052;DHT22;2040;50.924;11.604;2024-03-07T03:19:56;4.30;99.90
4052;DHT22;2040;50.924;11.604;2024-03-07T03:22:22;4.30;99.90
4052;DHT22;2040;50.924;11.604;2024-03-07T03:24:47;4.30;99.90
4052;DHT22;2040;50.924;11.604;2024-03-07T03:27:13;4.20;99.90
4052;DHT22;2040;50.924;11.604;2024-03-07T03:29:39;4.10;99.90
4052;DHT22;2040;50.924;11.604;2024-03-07T03:32:06;4.10;99.90
4052;DHT22;2040;50.924;11.604;2024-03-07T03:34:33;4.10;99.90
4052;DHT22;2040;50.924;11.604;2024-03-07T03:36:59;4.00;99.90
4052;DHT22;2040;50.924;11.604;2024-03-07T03:39:24;4.10;99.90
4052;DHT22;2040;50.924;11.604;2024-03-07T03:41:52;4.10;99.90
4052;DHT22;2040;50.924;11.604;2024-03-07T03:44:17;4.20;99.90
4052;DHT22;2040;50.924;11.604;2024-03-07T03:46:43;4.10;99.90
4052;DHT22;2040;50.924;11.604;2024-03-07T03:49:09;4.10;99.90
4052;DHT22;2040;50.924;11.604;2024-03-07T03:51:35;4.10;99.90
4052;DHT22;2040;50.924;11.604;2024-03-07T03:54:01;4.10;99.90
4052;DHT22;2040;50.924;11.604;2024-03-07T03:56:27;4.10;99.90
4052;DHT22;2040;50.924;11.604;2024-03-07T03:58:52;4.20;99.90
4052;DHT22;2040;50.924;11.604;2024-03-07T04:01:18;4.20;99.90
4052;DHT22;2040;50.924;11.604;2024-03-07T04:03:44;4.20;99.90
4052;DHT22;2040;50.924;11.604;2024-03-07T04:06:12;4.20;99.90
4052;DHT22;2040;50.924;11.604;2024-03-07T04:08:37;4.20;99.90
4052;DHT22;2040;50.924;11.604;2024-03-07T04:11:04;4.20;99.90
4052;DHT22;2040;50.924;11.604;2024-03-07T04:13:29;4.10;99.90
4052;DHT22;2040;50.924;11.604;2024-03-07T04:15:56;4.10;99.90
4052;DHT22;2040;50.924;11.604;2024-03-07T04:18:23;4.10;99.90
4052;DHT22;2040;50.924;11.604;2024-03-07T04:20:49;4.00;99.90
4052;DHT22;2040;50.924;11.604;2024-03-07T04:23:15;4.00;99.90
4052;DHT22;2040;50.924;11.604;2024-03-07T04:25:40;4.00;99.90
4052;DHT22;2040;50.924;11.604;2024-03-07T04:28:06;4.00;99.90
4052;DHT22;2040;50.924;11.604;2024-03-07T04:30:32;4.00;99.90
4052;DHT22;2040;50.924;11.604;2024-03-07T04:32:57;4.10;99.90
4052;DHT22;2040;50.924;11.604;2024-03-07T04:35:23;4.20;99.90
4052;DHT22;2040;50.924;11.604;2024-03-07T04:37:49;4.20;99.90
4052;DHT22;2040;50.924;11.604;2024-03-07T04:40:16;4.20;99.90
4052;DHT22;2040;50.924;11.604;2024-03-07T04:42:46;4.10;99.90
4052;DHT22;2040;50.924;11.604;2024-03-07T04:45:14;4.10;99.90
4052;DHT22;2040;50.924;11.604;2024-03-07T04:47:40;4.10;99.90
4052;DHT22;2040;50.924;11.604;2024-03-07T04:50:07;4.10;99.90
4052;DHT22;2040;50.924;11.604;2024-03-07T04:52:39;4.20;99.90
4052;DHT22;2040;50.924;11.604;2024-03-07T04:55:08;4.20;99.90
4052;DHT22;2040;50.924;11.604;2024-03-07T04:57:36;4.10;99.90
4052;DHT22;2040;50.924;11.604;2024-03-07T05:00:03;4.20;99.90
4052;DHT22;2040;50.924;11.604;2024-03-07T05:02:29;4.20;99.90
4052;DHT22;2040;50.924;11.604;2024-03-07T05:04:54;4.30;99.90
4052;DHT22;2040;50.924;11.604;2024-03-07T05:07:20;4.20;99.90
4052;DHT22;2040;50.924;11.604;2024-03-07T05:09:45;4.10;99.90
4052;DHT22;2040;50.924;11.604;2024-03-07T05:12:11;4.00;99.90
4052;DHT22;2040;50.924;11.604;2024-03-07T05:14:36;4.10;99.90
4052;DHT22;2040;50.924;11.604;2024-03-07T05:17:02;4.00;99.90
4052;DHT22;2040;50.924;11.604;2024-03-07T05:19:34;3.90;99.90
4052;DHT22;2040;50.924;11.604;2024-03-07T05:22:00;3.90;99.90
4052;DHT22;2040;50.924;11.604;2024-03-07T05:24:26;3.90;99.90
4052;DHT22;2040;50.924;11.604;2024-03-07T05:26:52;3.90;99.90
4052;DHT22;2040;50.924;11.604;2024-03-07T05:29:19;4.00;99.90
4052;DHT22;2040;50.924;11.604;2024-03-07T05:31:45;3.90;99.90
4052;DHT22;2040;50.924;11.604;2024-03-07T05:34:14;3.70;99.90
4052;DHT22;2040;50.924;11.604;2024-03-07T05:36:41;3.70;99.90
4052;DHT22;2040;50.924;11.604;2024-03-07T05:39:14;3.70;99.90
4052;DHT22;2040;50.924;11.604;2024-03-07T05:41:41;3.70;99.90
4052;DHT22;2040;50.924;11.604;2024-03-07T05:44:08;3.70;99.90
4052;DHT22;2040;50.924;11.604;2024-03-07T05:46:39;3.70;99.90
4052;DHT22;2040;50.924;11.604;2024-03-07T05:49:14;3.80;99.90
4052;DHT22;2040;50.924;11.604;2024-03-07T05:51:40;3.80;99.90
4052;DHT22;2040;50.924;11.604;2024-03-07T05:54:07;3.90;99.90
4052;DHT22;2040;50.924;11.604;2024-03-07T05:56:34;4.10;99.90
4052;DHT22;2040;50.924;11.604;2024-03-07T05:59:08;4.10;99.90
4052;DHT22;2040;50.924;11.604;2024-03-07T06:01:37;4.00;99.90
4052;DHT22;2040;50.924;11.604;2024-03-07T06:04:04;4.00;99.90
4052;DHT22;2040;50.924;11.604;2024-03-07T06:06:34;3.90;99.90
4052;DHT22;2040;50.924;11.604;2024-03-07T06:09:03;3.90;99.90
4052;DHT22;2040;50.924;11.604;2024-03-07T06:11:38;3.90;99.90
4052;DHT22;2040;50.924;11.604;2024-03-07T06:14:05;3.90;99.90
4052;DHT22;2040;50.924;11.604;2024-03-07T06:16:33;4.00;99.90
4052;DHT22;2040;50.924;11.604;2024-03-07T06:19:02;4.00;99.90
4052;DHT22;2040;50.924;11.604;2024-03-07T06:21:29;4.00;99.90
4052;DHT22;2040;50.924;11.604;2024-03-07T06:23:57;4.00;99.90
4052;DHT22;2040;50.924;11.604;2024-03-07T06:26:33;4.00;99.90
4052;DHT22;2040;50.924;11.604;2024-03-07T06:29:18;4.00;99.90
4052;DHT22;2040;50.924;11.604;2024-03-07T06:31:44;4.00;99.90
4052;DHT22;2040;50.924;11.604;2024-03-07T06:34:13;4.00;99.90
4052;DHT22;2040;50.924;11.604;2024-03-07T06:36:39;4.10;99.90
4052;DHT22;2040;50.924;11.604;2024-03-07T06:39:06;4.10;99.90
4052;DHT22;2040;50.924;11.604;2024-03-07T06:41:34;4.10;99.90
4052;DHT22;2040;50.924;11.604;2024-03-07T06:44:01;4.10;99.90
4052;DHT22;2040;50.924;11.604;2024-03-07T06:46:26;4.20;99.90
4052;DHT22;2040;50.924;11.604;2024-03-07T06:48:52;4.20;99.90
4052;DHT22;2040;50.924;11.604;2024-03-07T06:51:18;4.20;99.90
4052;DHT22;2040;50.924;11.604;2024-03-07T06:53:44;4.20;99.90
4052;DHT22;2040;50.924;11.604;2024-03-07T06:56:12;4.20;99.90
4052;DHT22;2040;50.924;11.604;2024-03-07T06:58:38;4.30;99.90
4052;DHT22;2040;50.924;11.604;2024-03-07T07:01:04;4.30;99.90
4052;DHT22;2040;50.924;11.604;2024-03-07T07:03:32;4.30;99.90
4052;DHT22;2040;50.924;11.604;2024-03-07T07:05:58;4.30;99.90
4052;DHT22;2040;50.924;11.604;2024-03-07T07:08:24;4.30;99.90
4052;DHT22;2040;50.924;11.604;2024-03-07T07:10:49;4.40;99.90
4052;DHT22;2040;50.924;11.604;2024-03-07T07:13:15;4.40;99.90
4052;DHT22;2040;50.924;11.604;2024-03-07T07:15:42;4.40;99.90
4052;DHT22;2040;50.924;11.604;2024-03-07T07:18:08;4.40;99.90
4052;DHT22;2040;50.924;11.604;2024-03-07T07:20:35;4.50;99.90
4052;DHT22;2040;50.924;11.604;2024-03-07T07:23:01;4.50;99.90
4052;DHT22;2040;50.924;11.604;2024-03-07T07:25:27;4.50;99.90
4052;DHT22;2040;50.924;11.604;2024-03-07T07:27:53;4.60;99.90
4052;DHT22;2040;50.924;11.604;2024-03-07T07:30:20;4.70;99.90
4052;DHT22;2040;50.924;11.604;2024-03-07T07:32:48;4.60;99.90
4052;DHT22;2040;50.924;11.604;2024-03-07T07:35:14;4.70;99.90
4052;DHT22;2040;50.924;11.604;2024-03-07T07:37:41;4.70;99.90
4052;DHT22;2040;50.924;11.604;2024-03-07T07:40:08;4.70;99.90
4052;DHT22;2040;50.924;11.604;2024-03-07T07:42:35;4.80;99.90
4052;DHT22;2040;50.924;11.604;2024-03-07T07:45:01;4.90;99.90
4052;DHT22;2040;50.924;11.604;2024-03-07T07:47:26;4.90;99.90
4052;DHT22;2040;50.924;11.604;2024-03-07T07:49:52;4.90;99.90
4052;DHT22;2040;50.924;11.604;2024-03-07T07:52:17;5.00;99.90
4052;DHT22;2040;50.924;11.604;2024-03-07T07:54:43;5.00;99.90
4052;DHT22;2040;50.924;11.604;2024-03-07T07:57:08;4.80;99.90
4052;DHT22;2040;50.924;11.604;2024-03-07T07:59:34;4.80;99.90
4052;DHT22;2040;50.924;11.604;2024-03-07T08:02:00;4.80;99.90
4052;DHT22;2040;50.924;11.604;2024-03-07T08:04:26;4.80;99.90
4052;DHT22;2040;50.924;11.604;2024-03-07T08:06:52;4.70;99.90
4052;DHT22;2040;50.924;11.604;2024-03-07T08:09:18;4.80;99.90
4052;DHT22;2040;50.924;11.604;2024-03-07T08:11:43;4.90;99.90
4052;DHT22;2040;50.924;11.604;2024-03-07T08:14:09;4.90;99.90
4052;DHT22;2040;50.924;11.604;2024-03-07T08:16:34;4.90;99.90
4052;DHT22;2040;50.924;11.604;2024-03-07T08:19:00;4.90;99.90
4052;DHT22;2040;50.924;11.604;2024-03-07T08:21:26;4.80;99.90
4052;DHT22;2040;50.924;11.604;2024-03-07T08:23:51;4.90;99.90
4052;DHT22;2040;50.924;11.604;2024-03-07T08:26:17;5.00;99.90
4052;DHT22;2040;50.924;11.604;2024-03-07T08:28:42;5.20;99.90
4052;DHT22;2040;50.924;11.604;2024-03-07T08:31:08;5.20;99.90
4052;DHT22;2040;50.924;11.604;2024-03-07T08:33:34;5.30;99.90
4052;DHT22;2040;50.924;11.604;2024-03-07T08:36:00;5.20;99.90
4052;DHT22;2040;50.924;11.604;2024-03-07T08:38:26;5.10;99.90
4052;DHT22;2040;50.924;11.604;2024-03-07T08:40:52;5.20;99.90
4052;DHT22;2040;50.924;11.604;2024-03-07T08:43:17;5.50;99.90
4052;DHT22;2040;50.924;11.604;2024-03-07T08:45:43;5.50;99.90
4052;DHT22;2040;50.924;11.604;2024-03-07T08:48:08;5.60;99.90
4052;DHT22;2040;50.924;11.604;2024-03-07T08:50:35;5.80;99.90
4052;DHT22;2040;50.924;11.604;2024-03-07T08:53:03;5.90;99.90
4052;DHT22;2040;50.924;11.604;2024-03-07T08:55:29;6.30;99.90
4052;DHT22;2040;50.924;11.604;2024-03-07T08:57:56;6.40;99.90
4052;DHT22;2040;50.924;11.604;2024-03-07T09:00:22;6.60;99.90
4052;DHT22;2040;50.924;11.604;2024-03-07T09:02:56;6.70;99.90
4052;DHT22;2040;50.924;11.604;2024-03-07T09:05:25;6.60;99.90
4052;DHT22;2040;50.924;11.604;2024-03-07T09:07:52;6.40;99.90
4052;DHT22;2040;50.924;11.604;2024-03-07T09:10:18;6.30;99.90
4052;DHT22;2040;50.924;11.604;2024-03-07T09:12:44;6.10;99.90
4052;DHT22;2040;50.924;11.604;2024-03-07T09:15:10;6.00;99.90
4052;DHT22;2040;50.924;11.604;2024-03-07T09:17:36;6.20;99.90
4052;DHT22;2040;50.924;11.604;2024-03-07T09:20:03;6.30;99.90
4052;DHT22;2040;50.924;11.604;2024-03-07T09:22:30;6.50;99.90
4052;DHT22;2040;50.924;11.604;2024-03-07T09:24:57;6.10;99.90
4052;DHT22;2040;50.924;11.604;2024-03-07T09:27:22;5.90;99.90
4052;DHT22;2040;50.924;11.604;2024-03-07T09:29:48;6.00;99.90
4052;DHT22;2040;50.924;11.604;2024-03-07T09:32:14;6.20;99.90
4052;DHT22;2040;50.924;11.604;2024-03-07T09:34:39;6.30;99.90
4052;DHT22;2040;50.924;11.604;2024-03-07T09:37:05;6.40;99.90
4052;DHT22;2040;50.924;11.604;2024-03-07T09:39:34;6.30;99.90
4052;DHT22;2040;50.924;11.604;2024-03-07T09:42:01;6.00;99.90
4052;DHT22;2040;50.924;11.604;2024-03-07T09:44:28;6.10;99.90
4052;DHT22;2040;50.924;11.604;2024-03-07T09:46:55;6.30;99.90
4052;DHT22;2040;50.924;11.604;2024-03-07T09:49:21;6.50;99.90
4052;DHT22;2040;50.924;11.604;2024-03-07T09:51:48;6.70;99.90
4052;DHT22;2040;50.924;11.604;2024-03-07T09:54:20;6.60;99.90
4052;DHT22;2040;50.924;11.604;2024-03-07T09:56:47;6.50;99.90
4052;DHT22;2040;50.924;11.604;2024-03-07T09:59:14;6.10;99.90
4052;DHT22;2040;50.924;11.604;2024-03-07T10:01:45;5.90;99.90
4052;DHT22;2040;50.924;11.604;2024-03-07T10:04:13;6.10;99.90
4052;DHT22;2040;50.924;11.604;2024-03-07T10:06:40;5.90;99.90
4052;DHT22;2040;50.924;11.604;2024-03-07T10:09:07;5.70;99.90
4052;DHT22;2040;50.924;11.604;2024-03-07T10:11:33;5.60;99.90
4052;DHT22;2040;50.924;11.604;2024-03-07T10:13:59;5.70;99.90
4052;DHT22;2040;50.924;11.604;2024-03-07T10:16:25;5.70;99.90
4052;DHT22;2040;50.924;11.604;2024-03-07T10:18:50;5.70;99.90
4052;DHT22;2040;50.924;11.604;2024-03-07T10:21:22;5.60;99.90
4052;DHT22;2040;50.924;11.604;2024-03-07T10:23:49;5.80;99.90
4052;DHT22;2040;50.924;11.604;2024-03-07T10:26:16;6.20;99.90
4052;DHT22;2040;50.924;11.604;2024-03-07T10:28:43;6.40;99.90
4052;DHT22;2040;50.924;11.604;2024-03-07T10:31:08;6.80;99.90
4052;DHT22;2040;50.924;11.604;2024-03-07T10:33:37;6.80;99.90
4052;DHT22;2040;50.924;11.604;2024-03-07T10:36:05;6.80;99.90
4052;DHT22;2040;50.924;11.604;2024-03-07T10:38:37;6.90;99.90
4052;DHT22;2040;50.924;11.604;2024-03-07T10:41:03;6.70;99.90
4052;DHT22;2040;50.924;11.604;2024-03-07T10:43:29;6.60;99.90
4052;DHT22;2040;50.924;11.604;2024-03-07T10:45:59;6.90;99.90
4052;DHT22;2040;50.924;11.604;2024-03-07T10:48:38;7.00;99.90
4052;DHT22;2040;50.924;11.604;2024-03-07T10:51:21;7.30;99.90
4052;DHT22;2040;50.924;11.604;2024-03-07T10:53:58;7.30;99.90
4052;DHT22;2040;50.924;11.604;2024-03-07T11:01:34;6.60;99.90
4052;DHT22;2040;50.924;11.604;2024-03-07T11:04:03;6.70;99.90
4052;DHT22;2040;50.924;11.604;2024-03-07T11:06:32;6.50;99.90
4052;DHT22;2040;50.924;11.604;2024-03-07T11:09:01;6.20;99.90
4052;DHT22;2040;50.924;11.604;2024-03-07T11:11:29;6.40;99.90
4052;DHT22;2040;50.924;11.604;2024-03-07T11:13:55;6.90;99.90
4052;DHT22;2040;50.924;11.604;2024-03-07T11:16:23;7.20;99.90
4052;DHT22;2040;50.924;11.604;2024-03-07T11:21:48;7.00;99.90
4052;DHT22;2040;50.924;11.604;2024-03-07T11:24:28;6.90;99.90
4052;DHT22;2040;50.924;11.604;2024-03-07T11:26:55;6.50;99.90
4052;DHT22;2040;50.924;11.604;2024-03-07T11:32:13;6.70;99.90
4052;DHT22;2040;50.924;11.604;2024-03-07T11:34:40;6.50;99.90
4052;DHT22;2040;50.924;11.604;2024-03-07T11:37:07;6.20;99.90
4052;DHT22;2040;50.924;11.604;2024-03-07T11:44:53;6.20;99.90
4052;DHT22;2040;50.924;11.604;2024-03-07T11:47:34;6.20;99.90
4052;DHT22;2040;50.924;11.604;2024-03-07T11:50:01;6.10;99.90
4052;DHT22;2040;50.924;11.604;2024-03-07T11:52:27;6.20;99.90
4052;DHT22;2040;50.924;11.604;2024-03-07T11:54:53;6.30;99.90
4052;DHT22;2040;50.924;11.604;2024-03-07T11:57:22;6.40;99.90
4052;DHT22;2040;50.924;11.604;2024-03-07T11:59:58;6.30;99.90
4052;DHT22;2040;50.924;11.604;2024-03-07T12:02:26;6.30;99.90
4052;DHT22;2040;50.924;11.604;2024-03-07T12:04:52;6.60;99.90
4052;DHT22;2040;50.924;11.604;2024-03-07T12:07:18;6.90;99.90
4052;DHT22;2040;50.924;11.604;2024-03-07T12:09:48;7.00;99.90
4052;DHT22;2040;50.924;11.604;2024-03-07T12:12:20;7.20;99.90
4052;DHT22;2040;50.924;11.604;2024-03-07T12:14:47;7.00;99.90
4052;DHT22;2040;50.924;11.604;2024-03-07T12:17:16;6.90;99.90
4052;DHT22;2040;50.924;11.604;2024-03-07T12:19:42;6.70;99.90
4052;DHT22;2040;50.924;11.604;2024-03-07T12:22:08;6.40;99.90
4052;DHT22;2040;50.924;11.604;2024-03-07T12:24:48;6.60;99.90
4052;DHT22;2040;50.924;11.604;2024-03-07T12:27:24;6.70;99.90
4052;DHT22;2040;50.924;11.604;2024-03-07T12:29:50;6.70;99.90
4052;DHT22;2040;50.924;11.604;2024-03-07T12:32:17;6.50;99.90
4052;DHT22;2040;50.924;11.604;2024-03-07T12:34:43;6.30;99.90
4052;DHT22;2040;50.924;11.604;2024-03-07T12:37:12;6.40;99.90
4052;DHT22;2040;50.924;11.604;2024-03-07T12:39:42;6.10;99.90
4052;DHT22;2040;50.924;11.604;2024-03-07T12:42:18;6.00;99.90
4052;DHT22;2040;50.924;11.604;2024-03-07T12:44:45;6.10;99.90
4052;DHT22;2040;50.924;11.604;2024-03-07T12:47:17;6.30;99.90
4052;DHT22;2040;50.924;11.604;2024-03-07T12:49:44;6.30;99.90
4052;DHT22;2040;50.924;11.604;2024-03-07T12:52:10;6.40;99.90
4052;DHT22;2040;50.924;11.604;2024-03-07T12:54:40;6.40;99.90
4052;DHT22;2040;50.924;11.604;2024-03-07T12:57:07;6.40;99.90
4052;DHT22;2040;50.924;11.604;2024-03-07T12:59:40;6.20;99.90
4052;DHT22;2040;50.924;11.604;2024-03-07T13:02:07;6.20;99.90
4052;DHT22;2040;50.924;11.604;2024-03-07T13:04:36;6.30;99.90
4052;DHT22;2040;50.924;11.604;2024-03-07T13:07:03;6.30;99.90
4052;DHT22;2040;50.924;11.604;2024-03-07T13:09:36;6.20;99.90
4052;DHT22;2040;50.924;11.604;2024-03-07T13:12:04;6.10;99.90
4052;DHT22;2040;50.924;11.604;2024-03-07T13:14:33;6.20;99.90
4052;DHT22;2040;50.924;11.604;2024-03-07T13:17:00;6.10;99.90
4052;DHT22;2040;50.924;11.604;2024-03-07T13:19:26;6.00;99.90
4052;DHT22;2040;50.924;11.604;2024-03-07T13:21:52;5.90;99.90
4052;DHT22;2040;50.924;11.604;2024-03-07T13:24:19;5.90;99.90
4052;DHT22;2040;50.924;11.604;2024-03-07T13:26:45;5.70;99.90
4052;DHT22;2040;50.924;11.604;2024-03-07T13:29:14;5.80;99.90
4052;DHT22;2040;50.924;11.604;2024-03-07T13:31:40;5.80;99.90
4052;DHT22;2040;50.924;11.604;2024-03-07T13:34:08;5.90;99.90
4052;DHT22;2040;50.924;11.604;2024-03-07T13:36:42;5.80;99.90
4052;DHT22;2040;50.924;11.604;2024-03-07T13:39:11;5.90;99.90
4052;DHT22;2040;50.924;11.604;2024-03-07T13:41:43;6.10;99.90
4052;DHT22;2040;50.924;11.604;2024-03-07T13:44:13;5.90;99.90
4052;DHT22;2040;50.924;11.604;2024-03-07T13:46:39;5.70;99.90
4052;DHT22;2040;50.924;11.604;2024-03-07T13:49:05;5.70;99.90
4052;DHT22;2040;50.924;11.604;2024-03-07T13:51:39;5.70;99.90
4052;DHT22;2040;50.924;11.604;2024-03-07T13:54:12;5.70;99.90
4052;DHT22;2040;50.924;11.604;2024-03-07T13:57:24;5.80;99.90
4052;DHT22;2040;50.924;11.604;2024-03-07T14:14:13;5.70;99.90
4052;DHT22;2040;50.924;11.604;2024-03-07T14:17:39;5.50;99.90
4052;DHT22;2040;50.924;11.604;2024-03-07T14:23:36;5.60;99.90
4052;DHT22;2040;50.924;11.604;2024-03-07T14:32:11;5.60;99.90
4052;DHT22;2040;50.924;11.604;2024-03-07T14:34:57;5.70;99.90
4052;DHT22;2040;50.924;11.604;2024-03-07T14:37:31;5.80;99.90
4052;DHT22;2040;50.924;11.604;2024-03-07T14:40:09;5.50;99.90
4052;DHT22;2040;50.924;11.604;2024-03-07T14:42:42;5.50;99.90
4052;DHT22;2040;50.924;11.604;2024-03-07T14:45:12;5.20;99.90
4052;DHT22;2040;50.924;11.604;2024-03-07T14:47:38;5.30;99.90
4052;DHT22;2040;50.924;11.604;2024-03-07T14:50:05;5.30;99.90
4052;DHT22;2040;50.924;11.604;2024-03-07T14:52:33;5.10;99.90
4052;DHT22;2040;50.924;11.604;2024-03-07T14:54:59;4.90;99.90
4052;DHT22;2040;50.924;11.604;2024-03-07T14:57:25;4.90;99.90
4052;DHT22;2040;50.924;11.604;2024-03-07T14:59:52;4.90;99.90
4052;DHT22;2040;50.924;11.604;2024-03-07T15:02:18;5.00;99.90
4052;DHT22;2040;50.924;11.604;2024-03-07T15:04:43;5.10;99.90
4052;DHT22;2040;50.924;11.604;2024-03-07T15:07:10;5.10;99.90
4052;DHT22;2040;50.924;11.604;2024-03-07T15:09:36;5.10;99.90
4052;DHT22;2040;50.924;11.604;2024-03-07T15:12:02;5.00;99.90
4052;DHT22;2040;50.924;11.604;2024-03-07T15:14:27;4.90;99.90
4052;DHT22;2040;50.924;11.604;2024-03-07T15:16:53;4.70;99.90
4052;DHT22;2040;50.924;11.604;2024-03-07T15:19:18;4.80;99.90
4052;DHT22;2040;50.924;11.604;2024-03-07T15:21:44;4.90;99.90
4052;DHT22;2040;50.924;11.604;2024-03-07T15:24:10;4.70;99.90
4052;DHT22;2040;50.924;11.604;2024-03-07T15:26:36;4.80;99.90
4052;DHT22;2040;50.924;11.604;2024-03-07T15:29:02;4.80;99.90
4052;DHT22;2040;50.924;11.604;2024-03-07T15:31:27;4.80;99.90
4052;DHT22;2040;50.924;11.604;2024-03-07T15:33:54;4.60;99.90
4052;DHT22;2040;50.924;11.604;2024-03-07T15:36:20;4.90;99.90
4052;DHT22;2040;50.924;11.604;2024-03-07T15:38:51;4.80;99.90
4052;DHT22;2040;50.924;11.604;2024-03-07T15:41:16;4.80;99.90
4052;DHT22;2040;50.924;11.604;2024-03-07T15:43:42;4.80;99.90
4052;DHT22;2040;50.924;11.604;2024-03-07T15:46:12;4.80;99.90
4052;DHT22;2040;50.924;11.604;2024-03-07T15:48:39;4.80;99.90
4052;DHT22;2040;50.924;11.604;2024-03-07T15:51:05;4.70;99.90
4052;DHT22;2040;50.924;11.604;2024-03-07T15:53:33;4.60;99.90
4052;DHT22;2040;50.924;11.604;2024-03-07T15:56:02;4.60;99.90
4052;DHT22;2040;50.924;11.604;2024-03-07T15:58:28;4.50;99.90
4052;DHT22;2040;50.924;11.604;2024-03-07T16:00:54;4.50;99.90
4052;DHT22;2040;50.924;11.604;2024-03-07T16:03:19;4.50;99.90
4052;DHT22;2040;50.924;11.604;2024-03-07T16:05:48;4.30;99.90
4052;DHT22;2040;50.924;11.604;2024-03-07T16:08:15;4.30;99.90
4052;DHT22;2040;50.924;11.604;2024-03-07T16:10:42;4.10;99.90
4052;DHT22;2040;50.924;11.604;2024-03-07T16:13:11;3.90;99.90
4052;DHT22;2040;50.924;11.604;2024-03-07T16:15:41;3.90;99.90
4052;DHT22;2040;50.924;11.604;2024-03-07T16:18:09;3.80;99.90
4052;DHT22;2040;50.924;11.604;2024-03-07T16:20:35;3.90;99.90
4052;DHT22;2040;50.924;11.604;2024-03-07T16:23:01;3.80;99.90
4052;DHT22;2040;50.924;11.604;2024-03-07T16:25:30;3.80;99.90
4052;DHT22;2040;50.924;11.604;2024-03-07T16:27:56;3.70;99.90
4052;DHT22;2040;50.924;11.604;2024-03-07T16:30:24;3.60;99.90
4052;DHT22;2040;50.924;11.604;2024-03-07T16:32:51;3.60;99.90
4052;DHT22;2040;50.924;11.604;2024-03-07T16:35:24;3.50;99.90
4052;DHT22;2040;50.924;11.604;2024-03-07T16:37:50;3.60;99.90
4052;DHT22;2040;50.924;11.604;2024-03-07T16:40:21;3.70;99.90
4052;DHT22;2040;50.924;11.604;2024-03-07T16:42:52;3.50;99.90
4052;DHT22;2040;50.924;11.604;2024-03-07T16:45:19;3.70;99.90